LiveATC.Net - Listen to live air traffic control over the Internet! Contact LiveATC.net for advertising information

Find LiveATC Audio Streams


Airport/ARTCC Code

Frequency
(e.g., 124.400, 128.75)
Site-wide search

Browse LiveATC Feeds
LiveATC Coverage Map
Top 50 LiveATC Feeds
Bad Weather Areas

LiveATC FAQ
Offer a LiveATC Feed
Contact LiveATC.net
Press Inquiries

LiveATC on iPhone
LiveATC on Android

LiveATC Mobile
(Mobile browser)

ATC Audio Archives
Interesting Recordings

LiveATC Forums

Home Page
About LiveATC.net
Make a Donation
LiveATC Bookstore

Terms of Use
Privacy Policy

ATC/Radar Sites
U.S. ARTCC Freqs
Canadian Air Freqs

AIRMETs/SIGMETs

FAA Airport Status
Nat'l Airspace Status
Arrival Demand Charts


Server Software By:
Icecast.org
Liquidsoap


Current Potentially Bad Weather Airports
(updated every 30 minutes - sorted alphabetically by ICAO code)



This page lists LiveATC.net airport areas that may be interesting to listen to because of challenging flying (weather) conditions. Challenging weather conditions include low ceilings, limited visibility, high or gusty winds, or thunderstorms. This is an evolving new feature and comments are welcome.

Updated: Wed Jul 29 21:40:01 UTC 2015
Click on airport name to go to that airport area's feeds.

CYYT Gnd/Twr/Gander Center
WX MAP UNAVAILABLECYYT 292121Z 14008KT 4SM BR OVC003 11/10 A3008 RMK SF8 SLP190
ESOE Twr/App
WX MAP UNAVAILABLEESOE 292120Z 00000KT 9999 -RA OVC004 13/13 Q0997
ESPA Twr/Control
WX MAP UNAVAILABLEESPA 292120Z 31006KT 2200 BR VV009 14/14 Q0994
KABQ Twr/App/ZAB
kabqKABQ 292052Z 14005KT 5SM +TSRA FEW047 SCT070CB OVC090 21/17 A3030 RMK AO2 PK WND 16029/2038 LTG DSNT NE AND S RAB07 TSB07 SLP186 TS W-N-NE MOV NW MTNS OBSC NE-SE P0010 60010 T02060172 56001
KARB Gnd/Twr
karbKARB 292053Z AUTO 22008KT 10SM FEW031 27/24 A2990 RMK AO2 LTG DSNT ALQDS RAB05E16 TSE03 SLP119 P0000 60064 T02670239 50005
KBMG Ground/Tower
kbmgKBMG 292053Z 00000KT 10SM CLR 29/26 A2999 RMK AO2 LTG DSNT E-S SLP145 T02890256 55002
KBTR/KHZR/L38 Del/Gnd/Twr/App/CTAF
khzrKHZR 292115Z AUTO 00000KT 10SM CLR A2997 RMK AO2 LTG DSNT NE THRU SE
KDAY Del/Gnd/Twr/App
kdayKDAY 292101Z 12006KT 4SM -TSRA SCT011 BKN029CB OVC070 24/24 A2997 RMK AO2 OCNL LTGICCCCG NW-SE TS NW-SE MOV E P0006 T02440239 $
KEVV Twr/ZID
kevvKEVV 292054Z 32007KT 8SM CLR 33/25 A2996 RMK AO2 LTG DSNT ALQDS SLP139 T03280250 58008
KFHU Gnd/Twr/Radar
kfhuKFHU 292114Z AUTO VRB02KT 10SM FEW060 29/13 A3017 RMK AO2 LTG DSNT N-NE PRESFR
KFNT Del/Gnd/Twr/App #2
kfntKFNT 292053Z 27010G19KT 9SM FEW025 BKN030 BKN036 31/23 A2986 RMK AO2 LTG DSNT NE SLP104 60016 T03110233 58009
KGNV Ground/Tower
kgnvKGNV 292121Z 10SM TS FEW024 BKN060 BKN075 31/23 A2992 RMK AO2 LTG DSNT ALQDS TSB15 PRESRR T03060233 $
KHDC De/Gnd/Twr/App/ZHU
khdcKHDC 292115Z AUTO 34005KT 10SM CLR 37/20 A2996 RMK AO2 LTG DSNT W AND NW
KHUT Ground/Twr
khutKHUT 292052Z 34003KT 10SM -RA SCT095 SCT120 26/20 A3018 RMK AO2 LTG DSNT S AND SW RAB46 SLP197 P0000 60000 T02560200 53010
KIAB Tower
kiabKIAB 292118Z AUTO 01013KT 7SM BKN019 26/21 A3013 RMK AO2 LTG DSNT W CIG 019V024
KICT Tower
kictKICT 292109Z 34010KT 10SM TS FEW045 SCT060CB BKN120 BKN150 OVC220 27/21 A3015 RMK AO2 TSB05 OCNL LTGICCG VC SE-SW-W TS DSNT SE-SW-W SHRA VC SE-SW-W MOVG E T02670211
KINT Ground/Tower
kintKINT 292119Z 00000KT 3SM -RA SCT038 BKN055 OVC090 26/22 A2999 RMK AO2 LTG DSNT SW P0021 T02560222
KJXN Del/Gnd/Twr/App
kjxnKJXN 292056Z 29015G20KT 10SM FEW065 SCT080 29/22 A2991 RMK AO2 LTG DSNT E SLP120 60002 T02940222 56005
KLBX CTAF
klbxKLBX 292053Z AUTO 17011KT 10SM FEW037 SCT045 BKN095 34/25 A3000 RMK AO2 LTG DSNT SW RAB33E48 SLP160 P0000 60000 T03440250 58016
KLEX Del/Gnd/Twr/App
klexKLEX 292054Z 17005KT 10SM CLR 26/23 A2998 RMK AO2 LTG DSNT NE AND E SLP142 60029 T02560228 56012
KLOU Del/Gnd/Twr
klouKLOU 292053Z 25006KT 10SM FEW045 SCT100 34/24 A2993 RMK AO2 LTG DSNT NW SLP128 T03390239 56020
KMCO Tower/App
kmcoKMCO 292113Z 25021G28KT 1/2SM +TSRA FG BKN007 BKN036CB OVC070 24/24 A2997
KMCO App (Disney/Ovido Satellite)
kmcoKSFB 292127Z 25013G21KT 10SM BKN039 BKN055 29/23 A2993 RMK AO2 WSHFT 2113 LTG DSNT S AND SW T02890228
KMCO App (Disney/Ovido Satellite)
kmcoKORL 292055Z AUTO 24016G21KT 10SM TS SCT043 BKN050 BKN060 29/23 A2994 RMK AO2 WSHFT 2040 LTG DSNT S-NW TSB55 T02890233
KMDH Ground/Tower
kmdhKMDH 292052Z 34010KT 10SM FEW050 32/24 A2999 RMK AO2 LTG DSNT SE AND S SLP149 60004 T03170244 58001
KMSP Minneapolis App
kmspKMSP 292053Z 26023G31KT 10SM FEW060 28/12 A2993 RMK AO2 PK WND 27031/2051 SLP131 T02780122 58002
KOPF ATIS
kopfKOPF 292053Z 08010KT 10SM VCTS CLR 29/24 A3000 RMK AO2 LTG DSNT E TSB06E31 SLP158 60001 T02890239 56002
KPDK Tower
kpdkKPDK 292053Z 02009KT 10SM FEW049 SCT110 33/23 A2995 RMK AO2 LTG DSNT NE RAB37E47 SLP118 P0000 60000 T03280228 56018
KPNS/KNPA Del/Gnd/Twr/App
kpnsKPNS 292123Z 22006KT 10SM SCT050 BKN060 BKN070 26/24 A2996 RMK AO2 LTG DSNT N AND S AND SW RAE2058 P0000 T02610239
KPNS/KNPA Del/Gnd/Twr/App
knpaKNPA 292126Z AUTO 17009KT 4SM +TSRA SCT100 SCT120 24/23 A2996 RMK AO2 WSHFT 2050 P0008 T02440228
KPRC Practice Area
kprcKPRC 292053Z 00000KT 10SM CLR 30/06 A3022 RMK AO2 LTG DSNT S SLP139 T03000061 58008
KRAL Ground/Tower
kralKRAL 292053Z 26009KT 10SM SCT100 35/18 A2990 RMK AO2 LTG DSNT NE SLP109 T03500183 58016
KSAF Gnd/Tower
ksafKSAF 292053Z 16011KT 10SM -RA FEW080 OVC100 23/14 A3035 RMK AO2 LTG DSNT NE AND S RAE07B50 SLP180 P0000 60000 T02280144 58007
KTMB Del/Gnd/Twr
ktmbKTMB 292053Z 29010KT 10SM SCT045 BKN065 33/22 A2998 RMK AO2 LTG DSNT NE SLP151 T03280222 56014
KUOX CTAF/ZME
kuoxKUOX 292055Z AUTO 29003KT 10SM CLR 35/23 A3000 RMK AO2 LTG DSNT SE PWINO PNO
MPTO Twr/App/Control
WX MAP UNAVAILABLEMPTO 292100Z 07005KT 7000 -TSRA SCT016CB SCT018 BKN090 27/24 Q1008 RWY WET NOSIG
MROC Del/Gnd/Twr/App/Center/Misc
WX MAP UNAVAILABLEMROC 292126Z 24008KT TSRA FEW010CB SCT030 BKNK100 24/21 A2996 NOSIG
RKSG Gnd/Twr/App
WX MAP UNAVAILABLERKSG 292108Z AUTO 16003KT 2 1/2SM BR FEW013 26/26 A2977 RMK AO2
RKSO Gnd/Twr/App
WX MAP UNAVAILABLERKSO 292058Z 08003KT 2 1/4SM BR SCT014 25/25 A2976 RMK AO2A SLP080 T02540246 52006
SUMU Twr/App/Radar
WX MAP UNAVAILABLESUMU 292100Z 17012KT 1500 BR OVC002 13/13 Q1018 TEMPO 3000 BR
YMML/YMMB/YMEN
WX MAP UNAVAILABLEYMML 292100Z 36027KT CAVOK 07/03 Q1020 FM2100 MOD/SEV TURB BLW 5000FT